createdAt,value
2019-02-27T00:00:00.366Z,0.00
2019-02-27T00:01:00.145Z,0.00
2019-02-27T00:02:00.138Z,0.00
2019-02-27T00:03:00.126Z,0.00
2019-02-27T00:04:02.431Z,0.00
2019-02-27T00:05:00.302Z,0.00
2019-02-27T00:06:00.118Z,0.00
2019-02-27T00:07:59.071Z,0.00
2019-02-27T00:09:00.584Z,0.00
2019-02-27T00:10:00.092Z,0.00
2019-02-27T00:11:59.026Z,0.00
2019-02-27T00:13:00.014Z,0.00
2019-02-27T00:14:00.000Z,0.00
2019-02-27T00:15:02.154Z,0.00
2019-02-27T00:16:00.032Z,0.00
2019-02-27T00:16:59.976Z,0.00
2019-02-27T00:17:59.968Z,0.00
2019-02-27T00:18:59.951Z,0.00
2019-02-27T00:20:04.110Z,0.00
2019-02-27T00:20:59.928Z,0.00
2019-02-27T00:21:59.916Z,0.00
2019-02-27T00:22:59.911Z,0.00
2019-02-27T00:23:59.899Z,0.00
2019-02-27T00:25:03.029Z,0.00
2019-02-27T00:25:59.872Z,0.00
2019-02-27T00:26:59.866Z,0.00
2019-02-27T00:27:59.849Z,0.00
2019-02-27T00:28:59.842Z,0.00
2019-02-27T00:30:04.642Z,0.00
2019-02-27T00:30:59.823Z,0.00
2019-02-27T00:31:59.813Z,0.00
2019-02-27T00:32:59.805Z,0.00
2019-02-27T00:34:00.518Z,0.00
2019-02-27T00:34:59.822Z,0.00
2019-02-27T00:35:59.779Z,0.00
2019-02-27T00:36:59.751Z,0.00
2019-02-27T00:37:59.747Z,0.00
2019-02-27T00:38:59.739Z,0.00
2019-02-27T00:39:59.719Z,0.00
2019-02-27T00:40:59.740Z,0.00
2019-02-27T00:41:59.726Z,0.00
2019-02-27T00:42:59.692Z,0.00
2019-02-27T00:44:01.463Z,0.00
2019-02-27T00:44:59.673Z,0.00
2019-02-27T00:45:59.666Z,0.00
2019-02-27T00:46:59.651Z,0.00
2019-02-27T00:47:59.665Z,0.00
2019-02-27T00:48:59.878Z,0.00
2019-02-27T00:49:59.613Z,0.00
2019-02-27T00:50:59.624Z,0.00
2019-02-27T00:51:59.635Z,0.00
2019-02-27T00:52:59.585Z,0.00
2019-02-27T00:53:59.577Z,0.00
2019-02-27T00:55:04.352Z,0.00
2019-02-27T00:55:59.549Z,0.00
2019-02-27T00:56:59.533Z,0.00
2019-02-27T00:57:59.559Z,0.00
2019-02-27T00:59:00.187Z,0.00
2019-02-27T00:59:59.503Z,0.00
2019-02-27T01:00:59.501Z,0.00
2019-02-27T01:01:59.485Z,0.00
2019-02-27T01:02:59.476Z,0.00
2019-02-27T01:04:02.335Z,0.00
2019-02-27T01:04:59.464Z,0.00
2019-02-27T01:05:59.442Z,0.00
2019-02-27T01:06:59.431Z,0.00
2019-02-27T01:07:59.427Z,0.00
2019-02-27T01:08:59.411Z,0.00
2019-02-27T01:09:59.431Z,0.00
2019-02-27T01:10:59.386Z,0.00
2019-02-27T01:11:59.376Z,0.00
2019-02-27T01:12:59.387Z,0.00
2019-02-27T01:13:59.355Z,0.00
2019-02-27T01:14:59.346Z,0.00
2019-02-27T01:15:59.333Z,0.00
2019-02-27T01:16:59.323Z,0.00
2019-02-27T01:18:00.362Z,0.00
2019-02-27T01:18:59.302Z,0.00
2019-02-27T01:19:59.300Z,0.00
2019-02-27T01:20:59.844Z,0.00
2019-02-27T01:21:59.282Z,0.00
2019-02-27T01:22:59.258Z,0.00
2019-02-27T01:23:59.271Z,0.00
2019-02-27T01:24:59.230Z,0.00
2019-02-27T01:25:59.225Z,0.00
2019-02-27T01:27:04.143Z,0.00
2019-02-27T01:27:59.227Z,0.00
2019-02-27T01:28:59.190Z,0.00
2019-02-27T01:29:59.177Z,0.00
2019-02-27T01:30:59.842Z,0.00
2019-02-27T01:31:59.166Z,0.00
2019-02-27T01:32:59.149Z,0.00
2019-02-27T01:33:59.183Z,0.00
2019-02-27T01:34:59.853Z,0.00
2019-02-27T01:35:59.119Z,0.00
2019-02-27T01:36:59.110Z,0.00
2019-02-27T01:37:59.089Z,0.00
2019-02-27T01:38:59.086Z,0.00
2019-02-27T01:39:59.122Z,0.00
2019-02-27T01:40:59.063Z,0.00
2019-02-27T01:41:59.055Z,0.00
2019-02-27T01:42:59.042Z,0.00
2019-02-27T01:43:59.029Z,0.00
2019-02-27T01:44:59.024Z,0.00
2019-02-27T01:45:59.037Z,0.00
2019-02-27T01:47:01.532Z,0.00
2019-02-27T01:47:58.998Z,0.00
2019-02-27T01:48:58.981Z,0.00
2019-02-27T01:49:59.000Z,0.00
2019-02-27T01:50:58.959Z,0.00
2019-02-27T01:51:59.221Z,0.00
2019-02-27T01:52:58.937Z,0.00
2019-02-27T01:53:58.925Z,0.00
2019-02-27T01:54:58.923Z,0.00
2019-02-27T01:55:58.905Z,0.00
2019-02-27T01:56:59.867Z,0.00
2019-02-27T01:57:58.879Z,0.00
2019-02-27T01:58:58.861Z,0.00
2019-02-27T01:59:58.872Z,0.00
2019-02-27T02:01:01.841Z,0.00
2019-02-27T02:02:01.061Z,0.00
2019-02-27T02:02:58.823Z,0.00
2019-02-27T02:03:58.812Z,0.00
2019-02-27T02:04:58.799Z,0.00
2019-02-27T02:05:59.762Z,0.00
2019-02-27T02:06:59.337Z,0.00
2019-02-27T02:08:01.335Z,0.00
2019-02-27T02:08:58.757Z,0.00
2019-02-27T02:09:58.749Z,0.00
2019-02-27T02:10:58.852Z,0.00
2019-02-27T02:11:58.731Z,0.00
2019-02-27T02:12:58.747Z,0.00
2019-02-27T02:13:59.333Z,0.00
2019-02-27T02:14:58.700Z,0.00
2019-02-27T02:16:00.830Z,0.00
2019-02-27T02:16:58.672Z,0.00
2019-02-27T02:17:58.660Z,0.00
2019-02-27T02:18:58.653Z,0.00
2019-02-27T02:19:58.650Z,0.00
2019-02-27T02:21:01.686Z,0.00
2019-02-27T02:21:58.641Z,0.00
2019-02-27T02:22:58.603Z,0.00
2019-02-27T02:23:58.596Z,0.00
2019-02-27T02:24:58.587Z,0.00
2019-02-27T02:26:01.072Z,0.00
2019-02-27T02:26:58.566Z,0.00
2019-02-27T02:27:58.578Z,0.00
2019-02-27T02:28:58.551Z,0.00
2019-02-27T02:29:58.542Z,0.00
2019-02-27T02:31:04.876Z,0.00
2019-02-27T02:31:58.507Z,0.00
2019-02-27T02:32:59.332Z,0.00
2019-02-27T02:34:05.129Z,0.00
2019-02-27T02:34:58.479Z,0.00
2019-02-27T02:35:58.475Z,0.00
2019-02-27T02:37:02.490Z,0.00
2019-02-27T02:37:58.454Z,0.00
2019-02-27T02:38:58.445Z,0.00
2019-02-27T02:39:58.464Z,0.00
2019-02-27T02:40:58.411Z,0.00
2019-02-27T02:41:58.399Z,0.00
2019-02-27T02:42:59.205Z,0.00
2019-02-27T02:43:58.380Z,0.00
2019-02-27T02:44:58.447Z,0.00
2019-02-27T02:45:58.388Z,0.00
2019-02-27T02:46:58.351Z,0.00
2019-02-27T02:47:58.333Z,0.00
2019-02-27T02:48:58.326Z,0.00
2019-02-27T02:49:58.313Z,0.00
2019-02-27T02:50:58.300Z,0.00
2019-02-27T02:51:58.327Z,0.00
2019-02-27T02:52:58.286Z,0.00
2019-02-27T02:54:01.757Z,0.00
2019-02-27T02:54:58.269Z,0.00
2019-02-27T02:55:58.257Z,0.00
2019-02-27T02:57:00.543Z,0.00
2019-02-27T02:57:58.392Z,0.00
2019-02-27T02:58:58.222Z,0.00
2019-02-27T02:59:59.873Z,0.00
2019-02-27T03:00:58.198Z,0.00
2019-02-27T03:01:58.182Z,0.00
2019-02-27T03:03:01.038Z,0.00
2019-02-27T03:03:58.285Z,0.00
2019-02-27T03:04:58.156Z,0.00
2019-02-27T03:05:59.687Z,0.00
2019-02-27T03:06:58.130Z,0.00
2019-02-27T03:07:58.122Z,0.00
2019-02-27T03:08:58.115Z,0.00
2019-02-27T03:09:58.124Z,0.00
2019-02-27T03:10:58.092Z,0.00
2019-02-27T03:11:58.078Z,0.00
2019-02-27T03:12:58.069Z,0.00
2019-02-27T03:13:58.058Z,0.00
2019-02-27T03:14:58.039Z,0.00
2019-02-27T03:16:04.044Z,0.00
2019-02-27T03:16:58.022Z,0.00
2019-02-27T03:17:58.011Z,0.00
2019-02-27T03:18:57.997Z,0.00
2019-02-27T03:19:57.983Z,0.00
2019-02-27T03:20:57.982Z,0.00
2019-02-27T03:22:03.570Z,0.00
2019-02-27T03:22:57.983Z,0.00
2019-02-27T03:23:57.946Z,0.00
2019-02-27T03:25:03.666Z,0.00
2019-02-27T03:25:57.923Z,0.00
2019-02-27T03:26:57.927Z,0.00
2019-02-27T03:27:57.901Z,0.00
2019-02-27T03:28:57.923Z,0.00
2019-02-27T03:29:57.877Z,0.00
2019-02-27T03:30:57.870Z,0.00
2019-02-27T03:32:56.854Z,0.00
2019-02-27T03:34:05.149Z,0.00
2019-02-27T03:34:57.856Z,0.00
2019-02-27T03:35:59.984Z,0.00
2019-02-27T03:36:57.804Z,0.00
2019-02-27T03:37:57.798Z,0.00
2019-02-27T03:38:59.166Z,0.00
2019-02-27T03:39:57.773Z,0.00
2019-02-27T03:40:57.804Z,0.00
2019-02-27T03:41:59.356Z,0.00
2019-02-27T03:42:57.747Z,0.00
2019-02-27T03:43:57.723Z,0.00
2019-02-27T03:44:57.718Z,0.00
2019-02-27T03:45:57.705Z,0.00
2019-02-27T03:46:57.723Z,0.00
2019-02-27T03:47:57.715Z,0.00
2019-02-27T03:49:02.961Z,0.00
2019-02-27T03:49:57.679Z,0.00
2019-02-27T03:50:57.648Z,0.00
2019-02-27T03:52:00.654Z,0.00
2019-02-27T03:53:56.616Z,0.00
2019-02-27T03:54:58.395Z,0.00
2019-02-27T03:55:57.600Z,0.00
2019-02-27T03:56:57.581Z,0.00
2019-02-27T03:57:57.579Z,0.00
2019-02-27T03:58:57.600Z,0.00
2019-02-27T03:59:57.563Z,0.00
2019-02-27T04:00:57.551Z,0.00
2019-02-27T04:01:57.542Z,0.00
2019-02-27T04:02:57.525Z,0.00
2019-02-27T04:03:57.518Z,0.00
2019-02-27T04:04:57.522Z,0.00
2019-02-27T04:05:57.490Z,0.00
2019-02-27T04:06:57.489Z,0.00
2019-02-27T04:07:57.484Z,0.00
2019-02-27T04:08:57.467Z,0.00
2019-02-27T04:09:57.447Z,0.00
2019-02-27T04:10:58.297Z,0.00
2019-02-27T04:11:57.439Z,0.00
2019-02-27T04:12:57.416Z,0.00
2019-02-27T04:14:03.396Z,0.00
2019-02-27T04:14:57.392Z,0.00
2019-02-27T04:15:57.381Z,0.00
2019-02-27T04:16:57.383Z,0.00
2019-02-27T04:17:57.382Z,0.00
2019-02-27T04:19:02.948Z,0.00
2019-02-27T04:19:57.339Z,0.00
2019-02-27T04:20:57.327Z,0.00
2019-02-27T04:22:00.579Z,0.00
2019-02-27T04:23:56.299Z,0.00
2019-02-27T04:24:57.753Z,0.00
2019-02-27T04:25:57.270Z,0.00
2019-02-27T04:26:57.263Z,0.00
2019-02-27T04:27:57.282Z,0.00
2019-02-27T04:28:57.239Z,0.00
2019-02-27T04:29:57.234Z,0.00
2019-02-27T04:30:59.786Z,0.00
2019-02-27T04:31:57.207Z,0.00
2019-02-27T04:32:57.193Z,0.00
2019-02-27T04:33:59.849Z,0.00
2019-02-27T04:34:57.176Z,0.00
2019-02-27T04:35:57.166Z,0.00
2019-02-27T04:36:57.167Z,0.00
2019-02-27T04:37:57.170Z,0.00
2019-02-27T04:39:00.009Z,0.00
2019-02-27T04:39:57.118Z,0.00
2019-02-27T04:40:57.108Z,0.00
2019-02-27T04:41:57.104Z,0.00
2019-02-27T04:42:59.267Z,0.00
2019-02-27T04:43:57.072Z,0.00
2019-02-27T04:44:57.065Z,0.00
2019-02-27T04:45:57.054Z,0.00
2019-02-27T04:46:57.042Z,0.00
2019-02-27T04:47:57.038Z,0.00
2019-02-27T04:48:57.055Z,0.00
2019-02-27T04:49:57.051Z,0.00
2019-02-27T04:50:57.001Z,0.00
2019-02-27T04:51:56.992Z,0.00
2019-02-27T04:52:58.072Z,0.00
2019-02-27T04:53:56.970Z,0.00
2019-02-27T04:54:56.986Z,0.00
2019-02-27T04:55:56.946Z,0.00
2019-02-27T04:56:57.566Z,0.00
2019-02-27T04:57:56.944Z,0.00
2019-02-27T04:58:56.916Z,0.00
2019-02-27T04:59:56.912Z,0.00
2019-02-27T05:00:58.941Z,0.00
2019-02-27T05:01:56.884Z,0.00
2019-02-27T05:02:57.776Z,0.00
2019-02-27T05:04:01.206Z,0.00
2019-02-27T05:04:56.850Z,0.00
2019-02-27T05:05:56.836Z,0.00
2019-02-27T05:06:56.826Z,0.00
2019-02-27T05:07:56.813Z,0.00
2019-02-27T05:08:59.756Z,0.00
2019-02-27T05:09:56.836Z,0.00
2019-02-27T05:10:56.786Z,0.00
2019-02-27T05:11:56.778Z,0.00
2019-02-27T05:12:56.760Z,0.00
2019-02-27T05:13:56.776Z,0.00
2019-02-27T05:14:56.735Z,0.00
2019-02-27T05:15:59.271Z,0.00
2019-02-27T05:16:56.718Z,0.00
2019-02-27T05:17:59.273Z,0.00
2019-02-27T05:18:56.694Z,0.00
2019-02-27T05:19:56.687Z,0.00
2019-02-27T05:20:56.684Z,0.00
2019-02-27T05:21:56.688Z,0.00
2019-02-27T05:23:00.146Z,0.00
2019-02-27T05:23:56.640Z,0.00
2019-02-27T05:24:56.632Z,0.00
2019-02-27T05:25:56.672Z,0.00
2019-02-27T05:26:58.133Z,0.00
2019-02-27T05:27:56.608Z,0.00
2019-02-27T05:28:56.592Z,0.00
2019-02-27T05:29:56.576Z,0.00
2019-02-27T05:30:58.308Z,0.00
2019-02-27T05:31:56.555Z,0.00
2019-02-27T05:33:01.819Z,0.00
2019-02-27T05:33:56.591Z,0.00
2019-02-27T05:34:56.518Z,0.00
2019-02-27T05:35:57.248Z,0.00
2019-02-27T05:36:56.515Z,0.00
2019-02-27T05:37:56.491Z,0.00
2019-02-27T05:38:56.489Z,0.00
2019-02-27T05:39:56.477Z,0.00
2019-02-27T05:40:59.811Z,0.00
2019-02-27T05:41:56.449Z,0.00
2019-02-27T05:42:56.439Z,0.00
2019-02-27T05:43:56.432Z,0.00
2019-02-27T05:44:56.767Z,0.00
2019-02-27T05:45:57.260Z,0.00
2019-02-27T05:46:56.415Z,0.00
2019-02-27T05:47:56.391Z,0.00
2019-02-27T05:48:56.381Z,0.00
2019-02-27T05:49:57.943Z,0.00
2019-02-27T05:50:56.377Z,0.00
2019-02-27T05:51:59.262Z,0.00
2019-02-27T05:52:56.327Z,0.00
2019-02-27T05:53:58.423Z,0.00
2019-02-27T05:54:56.305Z,0.00
2019-02-27T05:55:58.426Z,0.00
2019-02-27T05:56:56.299Z,0.00
2019-02-27T05:57:56.307Z,0.00
2019-02-27T05:58:56.839Z,5.62
2019-02-27T05:59:56.260Z,5.62
2019-02-27T06:00:58.765Z,5.62
2019-02-27T06:01:56.233Z,5.62
2019-02-27T06:02:56.855Z,5.62
2019-02-27T06:03:56.211Z,5.62
2019-02-27T06:04:59.042Z,5.62
2019-02-27T06:05:56.224Z,5.62
2019-02-27T06:06:56.175Z,5.62
2019-02-27T06:07:56.165Z,5.62
2019-02-27T06:08:56.152Z,5.62
2019-02-27T06:09:56.233Z,11.25
2019-02-27T06:10:56.285Z,11.25
2019-02-27T06:11:56.762Z,11.25
2019-02-27T06:12:56.115Z,11.25
2019-02-27T06:13:56.106Z,11.25
2019-02-27T06:14:56.089Z,11.25
2019-02-27T06:15:56.076Z,11.25
2019-02-27T06:16:56.118Z,11.25
2019-02-27T06:17:56.066Z,11.25
2019-02-27T06:18:56.869Z,11.25
2019-02-27T06:19:56.033Z,16.88
2019-02-27T06:20:56.072Z,16.88
2019-02-27T06:21:56.806Z,16.88
2019-02-27T06:22:56.035Z,16.88
2019-02-27T06:23:55.989Z,16.88
2019-02-27T06:25:59.438Z,16.88
2019-02-27T06:26:55.964Z,16.88
2019-02-27T06:27:56.793Z,22.50
2019-02-27T06:28:55.942Z,22.50
2019-02-27T06:29:56.965Z,22.50
2019-02-27T06:30:55.915Z,22.50
2019-02-27T06:31:55.901Z,22.50
2019-02-27T06:32:55.929Z,22.50
2019-02-27T06:33:55.937Z,22.50
2019-02-27T06:34:59.066Z,22.50
2019-02-27T06:35:55.868Z,22.50
2019-02-27T06:36:55.853Z,28.12
2019-02-27T06:37:55.840Z,28.12
2019-02-27T06:39:00.116Z,28.12
2019-02-27T06:39:55.851Z,28.12
2019-02-27T06:40:55.811Z,28.12
2019-02-27T06:41:55.802Z,28.12
2019-02-27T06:42:56.965Z,28.12
2019-02-27T06:43:55.775Z,28.12
2019-02-27T06:44:55.771Z,28.12
2019-02-27T06:45:55.805Z,33.75
2019-02-27T06:46:55.760Z,33.75
2019-02-27T06:47:55.766Z,33.75
2019-02-27T06:48:56.457Z,33.75
2019-02-27T06:50:54.707Z,33.75
2019-02-27T06:51:55.687Z,33.75
2019-02-27T06:52:55.954Z,33.75
2019-02-27T06:53:55.666Z,33.75
2019-02-27T06:54:55.655Z,33.75
2019-02-27T06:55:55.641Z,33.75
2019-02-27T06:56:55.637Z,39.38
2019-02-27T06:57:55.621Z,39.38
2019-02-27T06:58:55.645Z,39.38
2019-02-27T06:59:59.406Z,39.38
2019-02-27T07:00:55.614Z,39.38
2019-02-27T07:01:55.590Z,39.38
2019-02-27T07:02:56.230Z,39.38
2019-02-27T07:03:55.563Z,39.38
2019-02-27T07:04:55.554Z,39.38
2019-02-27T07:05:55.539Z,39.38
2019-02-27T07:06:56.019Z,39.38
2019-02-27T07:07:55.556Z,39.38
2019-02-27T07:08:55.505Z,45.00
2019-02-27T07:09:55.512Z,45.00
2019-02-27T07:11:10.083Z,45.00
2019-02-27T07:11:55.477Z,45.00
2019-02-27T07:12:55.483Z,45.00
2019-02-27T07:13:55.450Z,45.00
2019-02-27T07:14:55.440Z,45.00
2019-02-27T07:15:58.232Z,45.00
2019-02-27T07:16:57.446Z,45.00
2019-02-27T07:17:55.419Z,45.00
2019-02-27T07:18:58.229Z,45.00
2019-02-27T07:19:55.397Z,45.00
2019-02-27T07:20:55.738Z,45.00
2019-02-27T07:22:54.391Z,45.00
2019-02-27T07:23:58.530Z,45.00
2019-02-27T07:24:55.341Z,50.62
2019-02-27T07:25:55.329Z,50.62
2019-02-27T07:26:55.318Z,50.62
2019-02-27T07:27:55.355Z,50.62
2019-02-27T07:28:55.287Z,50.62
2019-02-27T07:29:55.294Z,50.62
2019-02-27T07:30:55.274Z,50.62
2019-02-27T07:31:57.136Z,50.62
2019-02-27T07:32:55.245Z,50.62
2019-02-27T07:33:55.237Z,50.62
2019-02-27T07:34:57.733Z,50.62
2019-02-27T07:35:55.210Z,50.62
2019-02-27T07:36:55.203Z,50.62
2019-02-27T07:37:55.221Z,50.62
2019-02-27T07:38:57.472Z,56.25
2019-02-27T07:39:55.167Z,56.25
2019-02-27T07:40:55.161Z,56.25
2019-02-27T07:41:55.212Z,56.25
2019-02-27T07:42:55.142Z,56.25
2019-02-27T07:43:55.728Z,56.25
2019-02-27T07:44:55.116Z,56.25
2019-02-27T07:45:55.108Z,56.25
2019-02-27T07:46:57.585Z,56.25
2019-02-27T07:47:55.130Z,56.25
2019-02-27T07:48:56.745Z,56.25
2019-02-27T07:49:55.059Z,56.25
2019-02-27T07:50:55.064Z,56.25
2019-02-27T07:51:57.932Z,61.88
2019-02-27T07:52:55.041Z,61.88
2019-02-27T07:53:55.042Z,61.88
2019-02-27T07:54:55.035Z,61.88
2019-02-27T07:55:55.009Z,61.88
2019-02-27T07:56:54.976Z,61.88
2019-02-27T07:57:58.387Z,61.88
2019-02-27T07:59:00.288Z,61.88
2019-02-27T07:59:54.959Z,61.88
2019-02-27T08:00:54.943Z,61.88
2019-02-27T08:01:54.934Z,61.88
2019-02-27T08:02:54.923Z,61.88
2019-02-27T08:03:54.907Z,67.50
2019-02-27T08:04:55.327Z,67.50
2019-02-27T08:05:54.889Z,67.50
2019-02-27T08:06:54.877Z,67.50
2019-02-27T08:07:54.869Z,67.50
2019-02-27T08:08:57.184Z,67.50
2019-02-27T08:09:54.847Z,67.50
2019-02-27T08:10:54.888Z,67.50
2019-02-27T08:11:54.835Z,67.50
2019-02-27T08:12:56.499Z,67.50
2019-02-27T08:13:54.805Z,67.50
2019-02-27T08:14:54.794Z,67.50
2019-02-27T08:15:54.804Z,67.50
2019-02-27T08:16:57.198Z,67.50
2019-02-27T08:17:57.456Z,73.12
2019-02-27T08:18:54.744Z,73.12
2019-02-27T08:19:54.739Z,73.12
2019-02-27T08:20:55.231Z,73.12
2019-02-27T08:21:54.715Z,73.12
2019-02-27T08:22:54.731Z,73.12
2019-02-27T08:23:55.156Z,73.12
2019-02-27T08:24:54.685Z,73.12
2019-02-27T08:25:54.676Z,73.12
2019-02-27T08:26:54.668Z,73.12
2019-02-27T08:27:54.669Z,73.12
2019-02-27T08:28:54.689Z,73.12
2019-02-27T08:29:54.632Z,73.12
2019-02-27T08:30:54.622Z,73.12
2019-02-27T08:31:54.606Z,73.12
2019-02-27T08:32:57.207Z,73.12
2019-02-27T08:33:54.604Z,73.12
2019-02-27T08:34:54.613Z,78.75
2019-02-27T08:35:54.582Z,78.75
2019-02-27T08:36:54.554Z,78.75
2019-02-27T08:38:02.142Z,78.75
2019-02-27T08:38:54.551Z,78.75
2019-02-27T08:39:54.523Z,78.75
2019-02-27T08:40:57.506Z,78.75
2019-02-27T08:41:54.501Z,78.75
2019-02-27T08:42:54.490Z,78.75
2019-02-27T08:43:54.510Z,78.75
2019-02-27T08:44:54.478Z,78.75
2019-02-27T08:45:54.461Z,78.75
2019-02-27T08:46:54.475Z,78.75
2019-02-27T08:47:55.794Z,78.75
2019-02-27T08:48:54.462Z,78.75
2019-02-27T08:49:57.765Z,78.75
2019-02-27T08:50:54.406Z,78.75
2019-02-27T08:51:54.397Z,78.75
2019-02-27T08:52:54.388Z,78.75
2019-02-27T08:53:59.047Z,78.75
2019-02-27T08:54:54.396Z,78.75
2019-02-27T08:55:54.348Z,78.75
2019-02-27T08:56:54.335Z,78.75
2019-02-27T08:57:56.940Z,78.75
2019-02-27T08:58:54.343Z,78.75
2019-02-27T08:59:54.306Z,78.75
2019-02-27T09:00:54.302Z,78.75
2019-02-27T09:01:56.347Z,78.75
2019-02-27T09:02:55.733Z,78.75
2019-02-27T09:03:54.281Z,78.75
2019-02-27T09:04:54.275Z,78.75
2019-02-27T09:05:54.699Z,84.38
2019-02-27T09:06:54.237Z,84.38
2019-02-27T09:07:54.214Z,84.38
2019-02-27T09:08:54.209Z,84.38
2019-02-27T09:09:55.193Z,84.38
2019-02-27T09:10:54.185Z,84.38
2019-02-27T09:11:54.173Z,84.38
2019-02-27T09:13:04.351Z,84.38
2019-02-27T09:13:54.153Z,84.38
2019-02-27T09:14:55.911Z,84.38
2019-02-27T09:15:54.161Z,84.38
2019-02-27T09:16:54.122Z,84.38
2019-02-27T09:17:54.107Z,84.38
2019-02-27T09:18:54.094Z,84.38
2019-02-27T09:19:54.107Z,84.38
2019-02-27T09:20:54.276Z,84.38
2019-02-27T09:21:54.068Z,84.38
2019-02-27T09:22:55.828Z,84.38
2019-02-27T09:23:54.079Z,84.38
2019-02-27T09:24:54.031Z,84.38
2019-02-27T09:25:57.213Z,84.38
2019-02-27T09:26:54.000Z,84.38
2019-02-27T09:27:54.001Z,84.38
2019-02-27T09:28:53.991Z,84.38
2019-02-27T09:29:54.752Z,84.38
2019-02-27T09:30:53.958Z,84.38
2019-02-27T09:31:53.954Z,84.38
2019-02-27T09:32:53.985Z,84.38
2019-02-27T09:33:54.006Z,84.38
2019-02-27T09:34:53.922Z,84.38
2019-02-27T09:35:54.015Z,84.38
2019-02-27T09:36:53.898Z,90.00
2019-02-27T09:37:53.884Z,90.00
2019-02-27T09:38:57.312Z,90.00
2019-02-27T09:39:54.245Z,90.00
2019-02-27T09:40:56.726Z,90.00
2019-02-27T09:41:53.842Z,90.00
2019-02-27T09:42:54.112Z,90.00
2019-02-27T09:43:53.826Z,90.00
2019-02-27T09:44:53.838Z,90.00
2019-02-27T09:45:53.800Z,90.00
2019-02-27T09:46:53.791Z,90.00
2019-02-27T09:47:53.788Z,90.00
2019-02-27T09:48:55.758Z,90.00
2019-02-27T09:49:53.790Z,90.00
2019-02-27T09:50:53.750Z,90.00
2019-02-27T09:51:56.338Z,90.00
2019-02-27T09:52:53.719Z,90.00
2019-02-27T09:53:53.718Z,90.00
2019-02-27T09:54:54.872Z,90.00
2019-02-27T09:55:54.572Z,90.00
2019-02-27T09:56:53.676Z,90.00
2019-02-27T09:57:53.681Z,90.00
2019-02-27T09:58:53.655Z,90.00
2019-02-27T09:59:54.243Z,90.00
2019-02-27T10:00:53.637Z,90.00
2019-02-27T10:01:53.627Z,90.00
2019-02-27T10:02:53.615Z,90.00
2019-02-27T10:03:55.303Z,90.00
2019-02-27T10:04:53.638Z,90.00
2019-02-27T10:05:53.580Z,95.62
2019-02-27T10:06:53.569Z,95.62
2019-02-27T10:07:53.546Z,95.62
2019-02-27T10:08:53.543Z,95.62
2019-02-27T10:09:53.536Z,95.62
2019-02-27T10:10:53.559Z,95.62
2019-02-27T10:11:53.555Z,95.62
2019-02-27T10:12:53.500Z,95.62
2019-02-27T10:13:53.491Z,95.62
2019-02-27T10:14:53.480Z,95.62
2019-02-27T10:16:00.223Z,95.62
2019-02-27T10:16:53.457Z,95.62
2019-02-27T10:17:53.443Z,95.62
2019-02-27T10:18:55.610Z,95.62
2019-02-27T10:19:53.430Z,101.25
2019-02-27T10:20:53.415Z,101.25
2019-02-27T10:21:53.446Z,101.25
2019-02-27T10:22:54.050Z,101.25
2019-02-27T10:23:53.381Z,101.25
2019-02-27T10:24:53.371Z,101.25
2019-02-27T10:25:53.361Z,101.25
2019-02-27T10:26:53.677Z,101.25
2019-02-27T10:27:53.373Z,101.25
2019-02-27T10:28:53.340Z,101.25
2019-02-27T10:29:53.318Z,95.62
2019-02-27T10:30:53.320Z,95.62
2019-02-27T10:31:53.296Z,95.62
2019-02-27T10:32:53.315Z,95.62
2019-02-27T10:33:53.275Z,95.62
2019-02-27T10:34:54.400Z,95.62
2019-02-27T10:35:53.250Z,95.62
2019-02-27T10:36:53.283Z,95.62
2019-02-27T10:37:54.431Z,95.62
2019-02-27T10:38:53.222Z,95.62
2019-02-27T10:39:53.208Z,95.62
2019-02-27T10:40:53.194Z,95.62
2019-02-27T10:41:53.189Z,95.62
2019-02-27T10:42:53.216Z,95.62
2019-02-27T10:43:56.153Z,95.62
2019-02-27T10:44:53.296Z,101.25
2019-02-27T10:45:53.139Z,112.50
2019-02-27T10:46:53.126Z,123.75
2019-02-27T10:47:53.129Z,129.38
2019-02-27T10:48:53.137Z,129.38
2019-02-27T10:49:53.106Z,135.00
2019-02-27T10:50:53.087Z,140.62
2019-02-27T10:51:53.099Z,140.62
2019-02-27T10:52:53.096Z,135.00
2019-02-27T10:53:53.048Z,112.50
2019-02-27T10:54:53.043Z,106.88
2019-02-27T10:55:53.033Z,101.25
2019-02-27T10:56:53.024Z,112.50
2019-02-27T10:57:53.015Z,135.00
2019-02-27T10:58:53.023Z,140.62
2019-02-27T10:59:52.990Z,135.00
2019-02-27T11:00:52.986Z,129.38
2019-02-27T11:01:52.962Z,118.12
2019-02-27T11:02:52.996Z,101.25
2019-02-27T11:03:54.567Z,101.25
2019-02-27T11:04:52.938Z,101.25
2019-02-27T11:05:55.417Z,95.62
2019-02-27T11:06:52.916Z,95.62
2019-02-27T11:07:55.665Z,95.62
2019-02-27T11:08:52.914Z,95.62
2019-02-27T11:09:52.881Z,95.62
2019-02-27T11:10:52.885Z,95.62
2019-02-27T11:11:53.889Z,95.62
2019-02-27T11:12:52.882Z,90.00
2019-02-27T11:13:55.329Z,95.62
2019-02-27T11:14:52.851Z,90.00
2019-02-27T11:15:52.831Z,90.00
2019-02-27T11:16:52.805Z,95.62
2019-02-27T11:17:53.525Z,95.62
2019-02-27T11:18:52.782Z,95.62
2019-02-27T11:19:52.772Z,95.62
2019-02-27T11:20:55.692Z,95.62
2019-02-27T11:21:52.746Z,90.00
2019-02-27T11:22:52.741Z,90.00
2019-02-27T11:23:52.762Z,90.00
2019-02-27T11:24:52.718Z,90.00
2019-02-27T11:25:56.649Z,90.00
2019-02-27T11:26:52.716Z,90.00
2019-02-27T11:27:52.716Z,90.00
2019-02-27T11:28:52.674Z,90.00
2019-02-27T11:29:52.669Z,90.00
2019-02-27T11:30:52.694Z,90.00
2019-02-27T11:31:52.731Z,90.00
2019-02-27T11:32:57.021Z,90.00
2019-02-27T11:33:52.627Z,90.00
2019-02-27T11:34:52.607Z,90.00
2019-02-27T11:35:52.603Z,90.00
2019-02-27T11:36:52.588Z,90.00
2019-02-27T11:37:52.608Z,90.00
2019-02-27T11:38:52.567Z,90.00
2019-02-27T11:39:52.565Z,90.00
2019-02-27T11:40:52.545Z,90.00
2019-02-27T11:41:52.570Z,90.00
2019-02-27T11:42:52.538Z,90.00
2019-02-27T11:43:52.806Z,90.00
2019-02-27T11:44:52.526Z,90.00
2019-02-27T11:45:57.699Z,90.00
2019-02-27T11:46:58.591Z,90.00
2019-02-27T11:47:52.464Z,90.00
2019-02-27T11:48:52.458Z,90.00
2019-02-27T11:49:52.441Z,90.00
2019-02-27T11:50:52.435Z,90.00
2019-02-27T11:51:53.228Z,90.00
2019-02-27T11:52:52.447Z,90.00
2019-02-27T11:53:52.438Z,90.00
2019-02-27T11:54:52.388Z,90.00
2019-02-27T11:55:52.379Z,90.00
2019-02-27T11:56:56.324Z,90.00
2019-02-27T11:57:52.355Z,90.00
2019-02-27T11:58:52.374Z,90.00
2019-02-27T11:59:52.333Z,90.00
2019-02-27T12:00:52.326Z,90.00
2019-02-27T12:01:55.356Z,90.00
2019-02-27T12:02:52.335Z,90.00
2019-02-27T12:03:55.156Z,90.00
2019-02-27T12:04:55.278Z,90.00
2019-02-27T12:05:52.281Z,90.00
2019-02-27T12:06:52.266Z,90.00
2019-02-27T12:07:52.273Z,90.00
2019-02-27T12:08:52.229Z,90.00
2019-02-27T12:09:52.219Z,90.00
2019-02-27T12:10:52.206Z,90.00
2019-02-27T12:11:52.189Z,95.62
2019-02-27T12:12:52.206Z,90.00
2019-02-27T12:13:52.174Z,95.62
2019-02-27T12:14:52.162Z,95.62
2019-02-27T12:15:52.168Z,95.62
2019-02-27T12:16:52.490Z,95.62
2019-02-27T12:17:52.142Z,95.62
2019-02-27T12:18:52.166Z,95.62
2019-02-27T12:19:52.109Z,95.62
2019-02-27T12:20:54.024Z,95.62
2019-02-27T12:21:52.088Z,95.62
2019-02-27T12:22:52.075Z,95.62
2019-02-27T12:23:52.071Z,95.62
2019-02-27T12:24:52.876Z,95.62
2019-02-27T12:25:52.664Z,95.62
2019-02-27T12:26:52.038Z,95.62
2019-02-27T12:27:52.092Z,95.62
2019-02-27T12:28:52.887Z,95.62
2019-02-27T12:29:51.998Z,95.62
2019-02-27T12:30:51.987Z,95.62
2019-02-27T12:31:51.981Z,95.62
2019-02-27T12:32:55.778Z,95.62
2019-02-27T12:33:51.982Z,95.62
2019-02-27T12:34:51.943Z,95.62
2019-02-27T12:35:51.935Z,95.62
2019-02-27T12:36:52.667Z,95.62
2019-02-27T12:37:51.910Z,95.62
2019-02-27T12:38:51.929Z,95.62
2019-02-27T12:39:51.890Z,95.62
2019-02-27T12:40:51.882Z,95.62
2019-02-27T12:41:51.870Z,95.62
2019-02-27T12:42:52.653Z,95.62
2019-02-27T12:43:52.555Z,95.62
2019-02-27T12:44:54.552Z,95.62
2019-02-27T12:45:51.826Z,95.62
2019-02-27T12:46:51.813Z,95.62
2019-02-27T12:47:51.805Z,95.62
2019-02-27T12:48:51.819Z,95.62
2019-02-27T12:49:54.939Z,95.62
2019-02-27T12:50:51.766Z,95.62
2019-02-27T12:51:51.762Z,95.62
2019-02-27T12:52:51.744Z,95.62
2019-02-27T12:53:54.334Z,95.62
2019-02-27T12:54:51.723Z,95.62
2019-02-27T12:55:52.655Z,95.62
2019-02-27T12:56:51.705Z,95.62
2019-02-27T12:57:53.126Z,95.62
2019-02-27T12:58:51.680Z,95.62
2019-02-27T12:59:53.137Z,95.62
2019-02-27T13:00:51.657Z,95.62
2019-02-27T13:01:51.868Z,95.62
2019-02-27T13:02:51.638Z,95.62
2019-02-27T13:03:51.626Z,95.62
2019-02-27T13:04:52.640Z,95.62
2019-02-27T13:05:51.664Z,95.62
2019-02-27T13:06:51.594Z,95.62
2019-02-27T13:07:51.593Z,90.00
2019-02-27T13:08:52.886Z,90.00
2019-02-27T13:09:51.564Z,90.00
2019-02-27T13:10:51.554Z,90.00